Time;durP1;ratioP1;P1;durP2;ratioP2;P2;SDS_P1;SDS_P2;PMS_P1;PMS_P2;Temp;Humidity;BMP_temperature;BMP_pressure;BME280_temperature;BME280_humidity;BME280_pressure;Samples;Min_cycle;Max_cycle;Signal;HPM_P1;HPM_P2
2022/08/04 00:00:28;;;;;;;16.10;14.45;;;;;;;16.92;87.50;99145.24;2223069;80;21013;-82
2022/08/04 00:03:29;;;;;;;15.85;14.55;;;;;;;16.95;88.29;99141.26;2222981;80;20932;-81
2022/08/04 00:06:29;;;;;;;14.95;13.38;;;;;;;16.95;87.90;99135.98;2223107;80;20932;-81
2022/08/04 00:09:30;;;;;;;15.75;14.35;;;;;;;16.96;87.89;99141.69;2223033;80;20995;-81
2022/08/04 00:12:32;;;;;;;15.23;13.65;;;;;;;16.92;87.65;99133.38;2223168;80;21000;-81
2022/08/04 00:15:31;;;;;;;15.53;14.03;;;;;;;16.87;87.67;99136.50;2223195;80;21347;-82
2022/08/04 00:18:31;;;;;;;14.47;13.13;;;;;;;16.84;88.03;99136.53;2223424;80;20937;-81
2022/08/04 00:21:31;;;;;;;15.25;13.70;;;;;;;16.81;87.74;99133.92;2223137;80;21019;-81
2022/08/04 00:24:32;;;;;;;15.98;14.53;;;;;;;16.76;87.66;99133.08;2223714;80;20940;-81
2022/08/04 00:27:32;;;;;;;14.85;13.45;;;;;;;16.73;88.14;99134.42;2223881;80;20967;-81
2022/08/04 00:30:33;;;;;;;14.98;13.00;;;;;;;16.71;87.72;99135.76;2223781;80;20978;-81
2022/08/04 00:33:33;;;;;;;15.18;13.62;;;;;;;16.68;87.56;99130.95;2223676;80;20920;-81
2022/08/04 00:36:33;;;;;;;64.70;16.60;;;;;;;16.65;87.91;99138.44;2223652;80;21332;-82
2022/08/04 00:39:34;;;;;;;26.60;16.17;;;;;;;16.62;88.55;99131.84;2223565;80;20968;-81
2022/08/04 00:42:34;;;;;;;16.73;15.08;;;;;;;16.60;88.65;99133.62;2223283;80;20928;-82
2022/08/04 00:45:35;;;;;;;20.82;15.72;;;;;;;16.57;88.44;99138.91;2222930;80;20921;-82
2022/08/04 00:48:35;;;;;;;38.78;16.95;;;;;;;16.52;88.72;99139.39;2222274;80;21327;-81
2022/08/04 00:51:35;;;;;;;16.55;14.93;;;;;;;16.49;89.14;99138.09;2222678;80;20971;-81
2022/08/04 00:54:36;;;;;;;16.27;14.87;;;;;;;16.50;89.08;99140.72;2221749;80;21043;-80
2022/08/04 00:57:36;;;;;;;17.50;15.90;;;;;;;16.44;88.67;99146.44;2222427;80;20936;-81
2022/08/04 01:00:37;;;;;;;16.48;15.18;;;;;;;16.40;88.94;99142.95;2222625;80;21378;-81
2022/08/04 01:03:37;;;;;;;16.62;14.85;;;;;;;16.36;88.95;99138.59;2222046;80;20920;-81
2022/08/04 01:06:37;;;;;;;15.83;14.33;;;;;;;16.31;88.78;99140.37;2222363;80;20936;-82
2022/08/04 01:09:38;;;;;;;16.48;14.43;;;;;;;16.27;89.05;99139.09;2222270;80;20944;-81
2022/08/04 01:12:38;;;;;;;20.23;15.00;;;;;;;16.22;89.19;99142.63;2222168;80;21371;-81
2022/08/04 01:15:39;;;;;;;16.50;14.90;;;;;;;16.24;89.81;99149.20;2221684;80;20991;-80
2022/08/04 01:18:39;;;;;;;19.80;14.90;;;;;;;16.25;89.90;99146.56;2222003;80;21343;-83
2022/08/04 01:21:39;;;;;;;17.17;15.40;;;;;;;16.25;89.91;99149.20;2221928;80;21016;-83
2022/08/04 01:24:40;;;;;;;16.48;14.98;;;;;;;16.27;90.00;99153.14;2222162;80;20987;-83
2022/08/04 01:27:40;;;;;;;25.20;16.80;;;;;;;16.19;89.44;99152.31;2222083;80;21007;-82
2022/08/04 01:30:41;;;;;;;18.82;15.28;;;;;;;16.20;90.36;99152.74;2221605;80;20964;-83
2022/08/04 01:33:41;;;;;;;15.23;13.45;;;;;;;16.25;90.35;99153.59;2221950;80;20983;-83
2022/08/04 01:36:41;;;;;;;15.75;14.15;;;;;;;16.28;90.25;99151.38;2221997;80;20936;-83
2022/08/04 01:39:42;;;;;;;17.07;15.05;;;;;;;16.24;90.12;99153.16;2221804;80;21335;-83
2022/08/04 01:42:44;;;;;;;17.02;15.32;;;;;;;16.18;90.52;99151.44;2222213;80;21000;-83
2022/08/04 01:45:43;;;;;;;16.65;14.43;;;;;;;16.22;91.01;99149.22;2223227;80;20948;-84
2022/08/04 01:48:43;;;;;;;15.93;13.95;;;;;;;16.30;91.14;99146.98;2222871;80;20960;-83
2022/08/04 01:51:44;;;;;;;15.60;14.00;;;;;;;16.35;91.15;99153.09;2222267;80;21046;-83
2022/08/04 01:54:44;;;;;;;14.45;13.08;;;;;;;16.34;90.51;99148.70;2221849;80;20984;-84
2022/08/04 01:57:44;;;;;;;14.55;13.13;;;;;;;16.31;90.08;99152.67;2222348;80;20951;-82
2022/08/04 02:00:45;;;;;;;55.98;20.62;;;;;;;16.25;90.21;99146.56;2221959;80;21362;-79
2022/08/04 02:03:45;;;;;;;14.80;13.38;;;;;;;16.27;90.29;99148.31;2222396;80;20967;-82
2022/08/04 02:06:46;;;;;;;39.85;14.90;;;;;;;16.24;89.85;99149.20;2222880;80;21007;-78
2022/08/04 02:09:46;;;;;;;14.75;13.05;;;;;;;16.19;89.93;99145.72;2223004;80;20925;-83
2022/08/04 02:12:46;;;;;;;102.35;19.27;;;;;;;16.15;90.43;99142.23;2223453;80;21347;-81
2022/08/04 02:15:47;;;;;;;18.10;13.45;;;;;;;16.18;90.67;99146.61;2224049;80;20982;-83
2022/08/04 02:18:47;;;;;;;14.65;12.37;;;;;;;16.18;90.35;99143.53;2223528;80;21018;-82
2022/08/04 02:21:48;;;;;;;15.03;12.58;;;;;;;16.17;89.72;99143.55;2214558;80;21030;-81
2022/08/04 02:24:48;;;;;;;48.92;15.08;;;;;;;16.07;89.24;99141.41;2212503;81;21356;-84
2022/08/04 02:27:48;;;;;;;31.50;13.75;;;;;;;16.00;89.87;99133.55;2211687;81;20965;-85
2022/08/04 02:30:49;;;;;;;16.00;12.50;;;;;;;16.00;89.96;99137.49;2211912;81;20955;-84
2022/08/04 02:33:49;;;;;;;16.25;12.55;;;;;;;15.93;89.62;99132.27;2212005;81;20928;-84
2022/08/04 02:36:50;;;;;;;73.47;13.90;;;;;;;15.84;89.38;99129.67;2211482;81;20929;-84
2022/08/04 02:39:50;;;;;;;12.90;11.60;;;;;;;15.77;89.52;99139.80;2211602;81;21007;-84
2022/08/04 02:42:50;;;;;;;14.13;12.03;;;;;;;15.70;89.56;99140.70;2211282;81;20961;-84
2022/08/04 02:45:51;;;;;;;131.47;20.17;;;;;;;15.64;89.61;99134.59;2211643;81;20952;-85
2022/08/04 02:48:55;;;;;;;106.27;17.02;;;;;;;15.62;90.09;99139.86;2211283;81;20961;-83
2022/08/04 02:51:54;;;;;;;14.18;12.33;;;;;;;15.57;89.84;99131.04;2189775;81;21035;-82
2022/08/04 02:54:54;;;;;;;13.38;11.97;;;;;;;15.55;89.80;99138.06;2211628;81;20997;-83
2022/08/04 02:57:54;;;;;;;16.42;12.58;;;;;;;15.51;90.08;99135.89;2212072;81;20976;-83
2022/08/04 03:00:55;;;;;;;81.37;15.18;;;;;;;15.48;89.93;99136.34;2212086;81;20939;-83
2022/08/04 03:03:58;;;;;;;13.22;11.93;;;;;;;15.43;90.00;99135.47;2211463;81;20987;-85
2022/08/04 03:06:56;;;;;;;44.50;14.85;;;;;;;15.39;89.96;99131.11;2211347;81;20964;-83
2022/08/04 03:09:56;;;;;;;14.80;12.58;;;;;;;15.34;90.22;99132.87;2211835;81;20921;-86
2022/08/04 03:12:57;;;;;;;12.05;11.05;;;;;;;15.32;89.95;99130.69;2211775;81;21337;-85
2022/08/04 03:15:57;;;;;;;16.32;12.05;;;;;;;15.33;90.23;99133.75;2211421;81;20964;-82
2022/08/04 03:18:57;;;;;;;12.50;11.30;;;;;;;15.32;89.91;99133.31;2212095;81;20963;-83
2022/08/04 03:22:00;;;;;;;15.83;13.10;;;;;;;15.29;90.17;99135.08;2220279;80;21442;-84
2022/08/04 03:25:01;;;;;;;13.80;12.28;;;;;;;15.31;90.94;99136.39;2222806;80;20948;-84
2022/08/04 03:28:01;;;;;;;80.50;16.35;;;;;;;15.38;91.11;99135.93;2222093;80;21438;-83
2022/08/04 03:31:01;;;;;;;12.73;11.50;;;;;;;15.43;90.89;99136.79;2222119;80;20987;-84
2022/08/04 03:34:02;;;;;;;13.60;12.20;;;;;;;15.45;90.44;99135.03;2222198;80;20904;-83
2022/08/04 03:37:02;;;;;;;13.08;11.83;;;;;;;15.45;90.20;99138.53;2222386;80;21406;-83
2022/08/04 03:40:03;;;;;;;12.78;11.55;;;;;;;15.50;90.60;99142.02;2222567;80;20952;-82
2022/08/04 03:43:03;;;;;;;66.75;14.58;;;;;;;15.53;89.95;99146.41;2222545;80;20979;-81
2022/08/04 03:46:06;;;;;;;26.30;13.13;;;;;;;15.56;90.16;99151.66;2221864;80;21371;-82
2022/08/04 03:49:07;;;;;;;17.12;11.75;;;;;;;15.58;90.62;99153.88;2222004;80;20941;-81
2022/08/04 03:55:25;;;;;;;13.05;11.70;;;;;;;15.62;89.85;99156.96;2223129;80;21011;-83
2022/08/04 03:58:26;;;;;;;14.78;11.90;;;;;;;15.67;89.96;99156.51;2222697;80;20974;-82
2022/08/04 04:01:26;;;;;;;12.68;11.48;;;;;;;15.70;89.51;99159.12;2221687;80;20987;-82
2022/08/04 04:04:27;;;;;;;13.50;12.20;;;;;;;15.69;89.24;99159.13;2221661;80;21316;-82
2022/08/04 04:07:27;;;;;;;15.88;11.50;;;;;;;15.69;89.27;99156.06;2222456;80;20968;-82
2022/08/04 04:10:27;;;;;;;12.90;11.35;;;;;;;15.71;89.12;99156.93;2222104;80;20999;-82
2022/08/04 04:13:28;;;;;;;89.97;14.10;;;;;;;15.74;89.21;99156.92;2221486;80;20948;-82
2022/08/04 04:16:28;;;;;;;12.88;10.80;;;;;;;15.77;89.22;99162.17;2221110;80;20973;-82
2022/08/04 04:19:29;;;;;;;11.70;10.65;;;;;;;15.81;89.34;99161.28;2220295;80;20924;-82
2022/08/04 04:22:29;;;;;;;12.33;10.50;;;;;;;15.85;89.33;99158.19;2211363;80;21004;-82
2022/08/04 04:25:30;;;;;;;12.55;10.90;;;;;;;15.92;89.42;99163.42;2210335;81;20952;-82
2022/08/04 04:28:30;;;;;;;11.12;10.03;;;;;;;16.04;89.72;99155.91;2209830;81;21355;-81
2022/08/04 04:31:32;;;;;;;21.12;10.95;;;;;;;16.21;89.56;99158.00;2209958;81;20987;-82
2022/08/04 04:34:31;;;;;;;15.08;10.28;;;;;;;16.35;89.60;99156.59;2210484;81;20948;-82
2022/08/04 04:37:31;;;;;;;11.18;10.15;;;;;;;16.55;89.37;99156.50;2210230;81;21317;-83
2022/08/04 04:40:32;;;;;;;11.48;10.25;;;;;;;16.75;89.37;99155.93;2210346;81;20932;-82
2022/08/04 04:43:32;;;;;;;12.30;10.93;;;;;;;16.96;89.38;99157.95;2209875;81;20945;-82
2022/08/04 04:46:33;;;;;;;11.12;10.00;;;;;;;17.17;89.03;99165.22;2210254;81;20988;-81
2022/08/04 04:49:33;;;;;;;11.03;10.10;;;;;;;17.41;88.62;99160.63;2210450;81;21403;-84
2022/08/04 04:52:34;;;;;;;10.70;9.50;;;;;;;17.69;88.35;99160.77;2210098;81;21039;-81
2022/08/04 04:55:34;;;;;;;23.42;11.15;;;;;;;17.97;88.16;99169.68;2209177;80;20952;-79
2022/08/04 04:58:34;;;;;;;177.12;17.10;;;;;;;18.24;87.66;99168.02;2207575;81;20952;-82
2022/08/04 05:01:35;;;;;;;189.77;19.25;;;;;;;18.49;87.21;99164.58;2209322;81;21019;-81
2022/08/04 05:04:35;;;;;;;62.08;12.80;;;;;;;18.73;86.59;99170.84;2209747;81;20916;-82
2022/08/04 05:07:36;;;;;;;185.70;20.68;;;;;;;19.01;86.20;99171.26;2209124;81;21324;-82
2022/08/04 05:10:36;;;;;;;115.75;15.68;;;;;;;19.31;85.74;99174.30;2209606;81;20952;-81
2022/08/04 05:13:37;;;;;;;27.73;10.88;;;;;;;19.57;84.31;99179.14;2209488;81;20943;-85
2022/08/04 05:16:37;;;;;;;20.05;10.08;;;;;;;19.82;84.67;99177.76;2209549;81;20929;-84
2022/08/04 05:19:37;;;;;;;53.38;12.68;;;;;;;20.07;83.73;99171.53;2209359;81;20976;-79
2022/08/04 05:22:38;;;;;;;69.90;12.73;;;;;;;20.30;82.48;99173.23;2209136;81;21013;-83
2022/08/04 05:25:38;;;;;;;1999.90;240.25;;;;;;;20.54;82.70;99177.14;2209467;81;20976;-81
2022/08/04 05:28:38;;;;;;;69.97;15.38;;;;;;;20.80;81.47;99179.17;2210157;81;20936;-83
2022/08/04 05:31:39;;;;;;;121.17;17.02;;;;;;;20.98;81.93;99181.41;2209428;81;21322;-82
2022/08/04 05:34:39;;;;;;;10.30;8.13;;;;;;;21.22;80.69;99181.27;2209520;81;20953;-82
2022/08/04 05:37:40;;;;;;;42.43;8.88;;;;;;;21.46;79.55;99179.75;2209571;80;20933;-84
2022/08/04 05:40:40;;;;;;;8.00;7.20;;;;;;;21.71;78.79;99183.97;2210328;81;20905;-83
2022/08/04 05:43:41;;;;;;;10.98;7.37;;;;;;;21.96;76.27;99173.98;2210497;80;20905;-83
2022/08/04 05:46:41;;;;;;;8.20;7.20;;;;;;;22.21;75.75;99174.56;2211317;80;20995;-84
2022/08/04 05:49:41;;;;;;;7.28;6.40;;;;;;;22.50;74.80;99172.80;2210807;80;20973;-83
2022/08/04 05:52:42;;;;;;;10.78;7.25;;;;;;;22.68;72.79;99176.70;2210768;81;20995;-82
2022/08/04 05:55:42;;;;;;;8.53;6.67;;;;;;;22.86;71.53;99177.48;2209707;81;20980;-81
2022/08/04 05:58:43;;;;;;;8.18;6.15;;;;;;;23.04;69.96;99187.98;2209527;81;21328;-82
2022/08/04 06:01:43;;;;;;;1846.50;212.12;;;;;;;23.16;68.48;99182.25;2209736;81;20940;-80
2022/08/04 06:04:43;;;;;;;47.38;9.53;;;;;;;23.28;68.07;99181.83;2209386;81;20987;-82
2022/08/04 06:07:44;;;;;;;15.40;6.47;;;;;;;23.45;68.24;99182.14;2208654;80;21360;-81
2022/08/04 06:10:44;;;;;;;6.25;5.75;;;;;;;23.71;67.58;99185.71;2208191;80;20960;-82
2022/08/04 06:13:45;;;;;;;26.87;8.43;;;;;;;23.93;65.96;99180.00;2207528;81;21039;-82
2022/08/04 06:16:46;;;;;;;7.25;6.03;;;;;;;24.11;65.96;99178.44;2207903;81;21012;-81
2022/08/04 06:19:46;;;;;;;15.03;6.10;;;;;;;24.32;64.63;99184.36;2208244;80;21576;-81
2022/08/04 06:22:47;;;;;;;11.08;5.78;;;;;;;24.50;64.30;99172.10;2215853;80;21031;-82
2022/08/04 06:25:47;;;;;;;10.23;5.37;;;;;;;24.78;62.91;99188.75;2218624;80;20948;-83
2022/08/04 06:28:48;;;;;;;6.58;5.30;;;;;;;25.00;62.74;99187.44;2218700;80;20928;-82
2022/08/04 06:31:57;;;;;;;7.15;5.42;;;;;;;25.16;61.13;99182.36;2218659;80;20956;-81
2022/08/04 06:34:49;;;;;;;6.58;5.37;;;;;;;25.25;60.52;99179.77;2217837;80;20904;-81
2022/08/04 06:37:49;;;;;;;7.30;5.15;;;;;;;25.44;59.96;99182.52;2217612;80;21690;-81
2022/08/04 06:40:49;;;;;;;9.35;6.10;;;;;;;25.62;60.00;99184.39;2218287;80;21039;-83
2022/08/04 06:43:50;;;;;;;5.92;5.15;;;;;;;25.83;59.88;99179.45;2218597;80;20983;-83
2022/08/04 06:46:50;;;;;;;11.35;5.75;;;;;;;25.95;57.91;99180.71;2218739;80;21481;-82
2022/08/04 06:49:51;;;;;;;14.90;5.22;;;;;;;26.03;58.25;99182.13;2218349;80;20968;-80
2022/08/04 06:52:51;;;;;;;45.08;8.43;;;;;;;26.17;57.40;99179.29;2219936;80;20988;-81
2022/08/04 06:55:51;;;;;;;9.53;4.70;;;;;;;26.33;56.52;99181.69;2218873;80;20940;-83
2022/08/04 06:58:52;;;;;;;5.45;4.25;;;;;;;26.42;55.72;99179.91;2218966;80;20979;-82
2022/08/04 07:01:52;;;;;;;6.25;4.35;;;;;;;26.64;55.68;99179.28;2219052;80;20991;-81
2022/08/04 07:04:53;;;;;;;5.12;4.15;;;;;;;26.82;54.83;99185.55;2218998;80;21327;-82
2022/08/04 07:07:53;;;;;;;4.92;4.53;;;;;;;27.01;53.50;99185.58;2218438;80;20960;-79
2022/08/04 07:10:53;;;;;;;14.78;4.62;;;;;;;26.95;53.69;99185.37;2218237;80;21024;-78
2022/08/04 07:13:54;;;;;;;13.43;4.33;;;;;;;27.01;52.73;99188.26;2218115;80;20960;-81
2022/08/04 07:16:54;;;;;;;4.55;4.15;;;;;;;27.17;52.09;99183.87;2218803;80;20972;-79
2022/08/04 07:19:55;;;;;;;18.90;4.90;;;;;;;27.41;51.91;99177.73;2218861;80;20991;-81
2022/08/04 07:22:55;;;;;;;8.03;3.90;;;;;;;27.59;50.16;99178.59;2210530;80;21469;-80
2022/08/04 07:25:56;;;;;;;4.08;3.77;;;;;;;27.71;50.48;99183.34;2208040;81;21059;-82
2022/08/04 07:28:58;;;;;;;7.15;3.60;;;;;;;27.77;49.94;99187.08;2208628;80;20956;-79
2022/08/04 07:31:56;;;;;;;9.75;5.95;;;;;;;27.89;48.79;99186.42;2209301;80;20967;-81
2022/08/04 07:34:57;;;;;;;4.95;4.50;;;;;;;28.02;49.05;99178.58;2208903;80;20913;-82
2022/08/04 07:37:57;;;;;;;5.17;4.15;;;;;;;28.12;48.64;99183.84;2209334;80;20971;-76
2022/08/04 07:40:58;;;;;;;8.40;4.37;;;;;;;28.25;48.36;99190.78;2209427;80;21384;-81
2022/08/04 07:43:58;;;;;;;5.03;3.90;;;;;;;28.29;47.57;99186.98;2208328;80;21306;-80
2022/08/04 07:46:58;;;;;;;5.90;3.87;;;;;;;28.39;47.48;99184.17;2209247;80;20948;-82
2022/08/04 07:49:59;;;;;;;13.80;4.12;;;;;;;28.48;47.32;99183.66;2209671;80;21292;-82
2022/08/04 07:52:59;;;;;;;14.95;3.70;;;;;;;28.60;45.95;99187.95;2208999;81;20956;-82
2022/08/04 07:56:00;;;;;;;17.20;5.33;;;;;;;28.57;47.00;99187.66;2209206;80;20996;-82
2022/08/04 07:59:00;;;;;;;86.90;10.53;;;;;;;28.75;47.47;99190.67;2209395;81;21311;-82
2022/08/04 08:02:00;;;;;;;22.62;5.20;;;;;;;28.85;46.49;99182.98;2209996;81;20964;-82
2022/08/04 08:05:01;;;;;;;4.00;3.60;;;;;;;29.01;44.40;99182.97;2209715;80;20956;-83
2022/08/04 08:08:01;;;;;;;8.38;3.30;;;;;;;29.17;45.46;99179.30;2209473;80;21376;-82
2022/08/04 08:11:02;;;;;;;5.53;4.00;;;;;;;29.27;43.31;99178.75;2208848;80;20964;-83
2022/08/04 08:14:02;;;;;;;20.20;4.58;;;;;;;29.24;43.99;99176.24;2209785;80;20948;-82
2022/08/04 08:17:03;;;;;;;3.67;3.37;;;;;;;29.41;43.29;99181.48;2208747;81;20893;-83
2022/08/04 08:20:05;;;;;;;22.98;5.60;;;;;;;29.48;43.50;99171.67;2185610;81;21414;-82
2022/08/04 08:23:08;;;;;;;364.05;30.92;;;;;;;29.65;42.32;99177.86;2216046;80;21007;-81
2022/08/04 08:26:09;;;;;;;3.83;2.70;;;;;;;29.47;41.50;99175.77;2219678;80;20928;-82
2022/08/04 08:29:09;;;;;;;9.80;2.80;;;;;;;29.44;40.18;99179.51;2218774;80;20940;-83
2022/08/04 08:32:12;;;;;;;4.08;2.92;;;;;;;29.29;40.03;99176.83;2219671;80;20960;-82
2022/08/04 08:35:10;;;;;;;3.12;2.90;;;;;;;29.39;41.00;99173.51;2219732;80;21012;-82
2022/08/04 08:38:10;;;;;;;4.50;2.58;;;;;;;29.46;39.93;99182.97;2220148;80;20952;-79
2022/08/04 08:41:12;;;;;;;5.97;3.00;;;;;;;29.46;39.83;99177.59;2219977;80;20972;-79
2022/08/04 08:44:11;;;;;;;3.08;2.40;;;;;;;29.46;40.23;99183.45;2220657;80;20936;-82
2022/08/04 08:47:12;;;;;;;2.90;2.70;;;;;;;29.58;39.39;99181.88;2220723;80;20963;-82
2022/08/04 08:50:12;;;;;;;3.72;2.60;;;;;;;29.60;39.85;99179.96;2220881;80;21008;-82
2022/08/04 08:53:13;;;;;;;4.87;2.90;;;;;;;29.69;39.72;99186.13;2220518;80;21358;-82
2022/08/04 08:56:13;;;;;;;13.00;3.05;;;;;;;29.71;38.34;99185.08;2219977;80;20924;-82
2022/08/04 08:59:13;;;;;;;38.58;9.58;;;;;;;29.70;38.59;99192.76;2220168;80;20976;-81
2022/08/04 09:02:14;;;;;;;336.45;40.20;;;;;;;29.88;38.32;99188.08;2220161;80;20916;-79
2022/08/04 09:05:14;;;;;;;23.62;7.22;;;;;;;30.18;39.37;99188.50;2219966;80;21363;-80
2022/08/04 09:08:14;;;;;;;4.67;2.98;;;;;;;30.38;37.67;99180.92;2220280;80;20944;-81
2022/08/04 09:11:15;;;;;;;304.15;76.07;;;;;;;30.27;38.80;99184.75;2219899;80;20968;-81
2022/08/04 09:14:15;;;;;;;18.57;3.85;;;;;;;30.39;38.01;99177.27;2220660;80;20927;-79
2022/08/04 09:17:16;;;;;;;449.32;107.05;;;;;;;30.28;38.05;99184.27;2219933;80;20975;-80
2022/08/04 09:20:16;;;;;;;29.00;6.70;;;;;;;30.40;38.70;99176.78;2220306;80;20940;-81
2022/08/04 09:23:17;;;;;;;19.20;6.30;;;;;;;30.33;36.77;99192.44;2212312;80;20995;-81
2022/08/04 09:26:17;;;;;;;3.30;3.10;;;;;;;30.31;37.35;99184.94;2208963;80;20972;-80
2022/08/04 09:29:17;;;;;;;46.13;6.20;;;;;;;30.30;35.15;99176.48;2208767;80;20965;-80
2022/08/04 09:32:18;;;;;;;6.20;3.62;;;;;;;30.30;35.15;99176.48;2208724;80;21415;-80
2022/08/04 09:35:18;;;;;;;10.98;3.35;;;;;;;30.25;37.17;99183.98;2208351;80;20960;-80
2022/08/04 09:38:19;;;;;;;42.70;5.53;;;;;;;30.42;36.40;99184.28;2208095;80;20967;-80
2022/08/04 09:41:19;;;;;;;3.95;2.72;;;;;;;30.49;36.61;99179.38;2208028;81;20936;-82
2022/08/04 09:44:29;;;;;;;15.70;3.52;;;;;;;30.50;36.35;99182.45;2208828;80;20973;-81
2022/08/04 09:47:29;;;;;;;15.25;3.70;;;;;;;30.50;36.35;99182.45;2209654;81;20924;-80
2022/08/04 09:50:29;;;;;;;47.85;7.05;;;;;;;30.54;36.25;99185.33;2208977;80;21315;-79
2022/08/04 09:53:30;;;;;;;31.68;6.80;;;;;;;30.65;35.62;99184.19;2208879;81;20901;-82
2022/08/04 09:56:30;;;;;;;3.08;2.83;;;;;;;30.80;35.21;99176.92;2209390;80;20936;-81
2022/08/04 09:59:31;;;;;;;4.50;2.95;;;;;;;30.76;35.94;99184.34;2209432;81;20965;-81
2022/08/04 10:02:31;;;;;;;5.10;3.00;;;;;;;30.89;34.47;99185.27;2209264;80;20977;-81
2022/08/04 10:05:31;;;;;;;14.60;4.08;;;;;;;30.85;35.12;99182.39;2209678;81;21401;-81
2022/08/04 10:08:32;;;;;;;5.75;3.02;;;;;;;30.88;35.02;99174.59;2210049;80;20924;-81
2022/08/04 10:11:32;;;;;;;54.77;7.05;;;;;;;31.00;34.89;99169.25;2210159;80;20968;-80
2022/08/04 10:14:33;;;;;;;7.25;2.92;;;;;;;31.06;34.15;99184.16;2209879;80;20960;-81
2022/08/04 10:17:33;;;;;;;5.00;3.45;;;;;;;31.17;33.92;99175.38;2209135;80;20956;-81
2022/08/04 10:20:33;;;;;;;22.93;4.08;;;;;;;31.31;33.76;99172.64;2209412;81;21020;-81
2022/08/04 10:23:34;;;;;;;12.68;3.70;;;;;;;31.47;33.81;99171.11;2216469;80;21316;-81
2022/08/04 10:26:34;;;;;;;3.58;2.70;;;;;;;31.52;33.24;99165.78;2220602;80;20944;-81
2022/08/04 10:29:35;;;;;;;7.50;3.52;;;;;;;31.57;33.29;99164.98;2221221;80;20948;-81
2022/08/04 10:32:35;;;;;;;5.12;2.72;;;;;;;31.60;33.02;99158.02;2221696;80;21018;-82
2022/08/04 10:35:35;;;;;;;5.75;2.98;;;;;;;31.58;33.03;99156.40;2221054;80;21095;-82
2022/08/04 10:38:39;;;;;;;8.40;3.05;;;;;;;31.59;32.65;99158.12;2220713;80;20948;-80
2022/08/04 10:41:39;;;;;;;2.92;2.72;;;;;;;31.56;33.00;99154.29;2220402;80;20938;-81
2022/08/04 10:44:40;;;;;;;8.38;3.75;;;;;;;31.58;33.13;99146.47;2220278;80;21290;-80
2022/08/04 10:47:40;;;;;;;3.40;2.95;;;;;;;31.72;32.93;99144.67;2219724;80;21387;-80
2022/08/04 10:50:40;;;;;;;3.52;2.55;;;;;;;31.91;32.44;99141.92;2220290;80;20952;-81
2022/08/04 10:53:41;;;;;;;8.63;2.98;;;;;;;31.86;32.25;99147.27;2219646;80;20912;-80
2022/08/04 10:56:41;;;;;;;2.85;2.55;;;;;;;31.60;32.52;99139.61;2219706;80;20944;-80
2022/08/04 10:59:42;;;;;;;4.58;2.67;;;;;;;31.67;32.82;99151.22;2218877;80;21438;-80
2022/08/04 11:02:42;;;;;;;11.83;3.17;;;;;;;31.77;32.14;99146.08;2218824;80;20955;-81
2022/08/04 11:05:42;;;;;;;5.08;3.05;;;;;;;31.78;31.69;99140.20;2220009;80;21040;-80
2022/08/04 11:08:43;;;;;;;6.17;2.70;;;;;;;31.81;31.81;99141.33;2219920;80;21308;-80
2022/08/04 11:11:43;;;;;;;2.90;2.70;;;;;;;31.83;31.63;99141.59;2219630;80;20956;-80
2022/08/04 11:14:44;;;;;;;6.87;2.85;;;;;;;31.76;31.65;99140.79;2219308;80;20924;-81
2022/08/04 11:17:44;;;;;;;16.70;15.00;;;;;;;31.53;31.48;99145.06;2219702;80;20932;-79
2022/08/04 11:20:46;;;;;;;7.40;6.70;;;;;;;31.45;31.92;99144.23;2219861;80;21002;-80
2022/08/04 11:23:45;;;;;;;6.70;3.80;;;;;;;31.51;31.80;99148.34;2219434;80;21281;-80
2022/08/04 11:26:45;;;;;;;4.75;2.83;;;;;;;31.64;31.78;99144.69;2218940;80;20944;-80
2022/08/04 11:29:46;;;;;;;29.42;6.10;;;;;;;31.64;32.19;99143.34;2219672;80;20971;-81
2022/08/04 11:32:46;;;;;;;5.92;3.60;;;;;;;31.80;32.14;99132.37;2219880;80;20962;-81
2022/08/04 11:35:47;;;;;;;4.37;3.35;;;;;;;31.96;31.87;99137.55;2218671;80;21035;-80
2022/08/04 11:38:47;;;;;;;997.52;114.97;;;;;;;32.00;31.46;99136.34;2219266;80;20972;-81
2022/08/04 11:41:47;;;;;;;10.98;3.90;;;;;;;32.04;32.08;99128.89;2220336;80;20936;-80
2022/08/04 11:44:48;;;;;;;5.45;3.00;;;;;;;32.07;32.18;99134.08;2218730;80;21315;-80
2022/08/04 11:47:48;;;;;;;3.35;2.47;;;;;;;31.97;31.95;99136.56;2219222;80;21965;-80
2022/08/04 11:50:49;;;;;;;6.33;2.60;;;;;;;31.60;31.50;99135.56;2218609;80;20924;-82
2022/08/04 11:53:49;;;;;;;7.03;3.27;;;;;;;31.51;31.56;99138.42;2217668;80;20952;-80
2022/08/04 11:56:49;;;;;;;3.75;2.80;;;;;;;31.56;31.31;99135.41;2218029;80;21363;-83
2022/08/04 11:59:50;;;;;;;5.00;2.62;;;;;;;31.64;30.71;99130.34;2218065;80;20947;-79
2022/08/04 12:02:50;;;;;;;2.92;2.60;;;;;;;31.56;30.83;99124.13;2219079;80;20940;-81
2022/08/04 12:05:51;;;;;;;3.60;2.67;;;;;;;31.55;31.68;99115.66;2218961;80;20988;-80
2022/08/04 12:08:51;;;;;;;2.92;2.67;;;;;;;31.54;31.67;99119.33;2219447;80;20967;-81
2022/08/04 12:11:52;;;;;;;5.12;2.77;;;;;;;31.41;30.75;99118.45;2218988;80;20991;-81
2022/08/04 12:14:52;;;;;;;2.90;2.70;;;;;;;31.34;31.34;99121.19;2219677;80;20976;-79
2022/08/04 12:17:52;;;;;;;5.10;2.80;;;;;;;31.37;31.35;99120.98;2219515;80;21292;-80
2022/08/04 12:20:53;;;;;;;2.65;2.45;;;;;;;31.49;31.95;99114.73;2220036;80;20955;-80
2022/08/04 12:23:53;;;;;;;7.50;2.60;;;;;;;31.57;30.74;99104.27;2217869;80;20971;-80
2022/08/04 12:26:53;;;;;;;6.28;2.58;;;;;;;31.49;31.30;99112.03;2217510;80;20976;-80
2022/08/04 12:29:54;;;;;;;5.22;3.40;;;;;;;31.56;30.99;99097.14;2216942;80;20967;-80
2022/08/04 12:32:54;;;;;;;2.90;2.62;;;;;;;31.77;31.36;99106.94;2216823;80;20967;-79
2022/08/04 12:35:55;;;;;;;14.60;3.85;;;;;;;31.81;30.98;99096.31;2216727;80;21063;-81
2022/08/04 12:38:55;;;;;;;20.97;18.77;;;;;;;31.80;30.35;99101.33;2217129;80;21349;-80
2022/08/04 12:41:55;;;;;;;6.80;4.25;;;;;;;31.70;30.88;99096.69;2218042;80;20928;-82
2022/08/04 12:44:56;;;;;;;2.95;2.75;;;;;;;31.72;30.46;99096.09;2218101;80;20987;-81
2022/08/04 12:47:56;;;;;;;2.83;2.62;;;;;;;31.83;30.59;99085.41;2218452;80;21579;-79
2022/08/04 12:50:57;;;;;;;7.67;3.00;;;;;;;31.83;30.42;99088.09;2218105;80;21007;-79
2022/08/04 12:53:57;;;;;;;6.03;2.72;;;;;;;31.92;29.56;99081.55;2219360;80;20925;-80
2022/08/04 12:56:58;;;;;;;3.62;2.33;;;;;;;32.00;30.08;99079.66;2218821;80;20971;-80
2022/08/04 12:59:58;;;;;;;6.10;2.65;;;;;;;31.96;29.77;99079.02;2218648;80;20963;-81
2022/08/04 13:02:58;;;;;;;2.67;2.40;;;;;;;31.99;30.11;99075.23;2218815;80;20928;-80
2022/08/04 13:05:59;;;;;;;2.65;2.27;;;;;;;32.01;28.94;99081.38;2218399;80;20952;-80
2022/08/04 13:08:59;;;;;;;9.95;2.90;;;;;;;31.91;29.31;99066.33;2218540;80;20974;-80
2022/08/04 13:12:00;;;;;;;3.08;2.08;;;;;;;31.99;30.09;99064.43;2217424;80;20998;-81
2022/08/04 13:15:00;;;;;;;5.22;2.62;;;;;;;32.08;29.13;99062.90;2218011;80;20932;-81
2022/08/04 13:18:00;;;;;;;5.37;2.47;;;;;;;32.06;28.79;99068.41;2218989;80;20956;-80
2022/08/04 13:21:01;;;;;;;5.15;2.30;;;;;;;32.03;28.34;99064.58;2219214;80;21663;-80
2022/08/04 13:24:01;;;;;;;2.40;2.20;;;;;;;31.98;28.55;99062.22;2212782;80;20972;-81
2022/08/04 13:27:02;;;;;;;2.30;2.20;;;;;;;31.94;29.29;99057.15;2208568;80;20901;-80
2022/08/04 13:30:02;;;;;;;3.67;2.87;;;;;;;31.87;29.53;99054.03;2208511;80;20940;-82
2022/08/04 13:33:02;;;;;;;3.15;2.10;;;;;;;31.87;29.53;99054.03;2208500;80;20952;-81
2022/08/04 13:36:03;;;;;;;3.45;3.08;;;;;;;31.85;29.81;99060.03;2209377;80;21023;-79
2022/08/04 13:39:03;;;;;;;5.17;2.83;;;;;;;31.97;29.96;99058.28;2209464;80;20929;-81
2022/08/04 13:42:04;;;;;;;18.65;3.75;;;;;;;32.00;30.16;99056.22;2210263;81;20964;-80
2022/08/04 13:45:04;;;;;;;4.67;2.20;;;;;;;32.11;30.32;99054.12;2210971;81;20996;-82
2022/08/04 13:48:04;;;;;;;3.27;2.72;;;;;;;32.19;29.89;99051.72;2211060;80;20956;-81
2022/08/04 13:51:05;;;;;;;5.92;2.90;;;;;;;32.10;30.38;99060.49;2209897;80;21008;-80
2022/08/04 13:54:05;;;;;;;4.00;2.65;;;;;;;32.00;30.04;99058.05;2210532;80;21395;-80
2022/08/04 13:57:06;;;;;;;4.30;2.60;;;;;;;31.98;30.18;99058.66;2209344;81;20939;-80
2022/08/04 14:00:07;;;;;;;2.20;2.10;;;;;;;32.00;29.87;99050.82;2209383;81;20908;-80